Logo AVAMET
Benvolgut visitant, si us plau, ingressa Recuperar contrasenya

Peníscola Gran Hotel

Dades diàries. Acumulats / Últims 30 dies disponibles

Data Temperatura (°C) Humitat rel. (%) Pressió rel. (hPa) Vent (km/h) Precipitació
Mínima Mitjana Màxima Amplitud
tèrmica
Mínima Mitjana Màxima Mínima Mitjana Màxima Predom. Mitjana Ràfega
màxima
Total
(mm)
Índex-n
Mínima Mitjana Màxima Mínima Mitjana Màxima n
0 a 1
P0 max
mm 5'
Dades mensuals acumulades fins l'últim dia disponible
05/2019 8,3 13,8 17,3 17,6 18,2 21,5 28,0 19,7 1 65 92 999 1.012 1.023   8,8 48,0 26,4
Dades anuals acumulades fins l'últim dia disponible
2019 2,3 9,2 17,3 13,5 9,3 17,8 28,0 25,7 1 64 94 987 1.017 1.034   8,5 71,0 55,0
Últims 30 dies disponibles
26-05-2019 15,8     19,6     25,3 9,5 37 60 77 1.012 1.014 1.015 SSO 8,8 33,8 0,0
25-05-2019 15,6     20,1     24,6 9,0 45 68 90 1.013 1.014 1.015 29,0 0,8
24-05-2019 16,0     17,7     19,4 3,4 1 46 91 1.011 1.013 1.014 29,0 15,2 0,42 1,20
23-05-2019 13,3     18,1     23,0 9,7 69 78 87 1.012 1.014 1.016 27,0 0,0
22-05-2019 14,7     18,3     21,9 7,2 56 73 89 1.015 1.016 1.017 29,0 0,0
21-05-2019 13,3     17,2     21,1 7,8 57 72 87 1.012 1.014 1.015 34,0 0,0
20-05-2019 13,9     17,1     20,2 6,3 39 55 71 1.009 1.011 1.012 35,0 0,0
19-05-2019 12,3     17,6     22,8 10,5 35 56 77 1.006 1.008 1.010 42,0 0,0
18-05-2019 12,5     15,8     19,2 6,7 1 34 66 1.006 1.008 1.009 34,0 1,2
17-05-2019 15,2     18,0     20,8 5,6 43 67 90 999 1.003 1.007 48,0 4,0
16-05-2019 13,1     16,6     20,0 6,9 68 76 83 1.004 1.009 1.014 39,0 0,0
15-05-2019 12,9     16,9     20,9 8,0 67 78 89 1.010 1.012 1.014 29,0 0,0
14-05-2019 12,3     16,4     20,5 8,2 59 73 87 1.012 1.016 1.020 44,0 0,0
13-05-2019 14,3     18,1     21,9 7,6 35 63 90 1.017 1.019 1.020 24,0 0,0
12-05-2019 13,7     17,5     21,3 7,6 26 57 87 1.016 1.020 1.023 42,0 0,0
11-05-2019 17,3     20,5     23,7 6,4 31 59 87 1.013 1.017 1.021 31,0 0,0
10-05-2019 14,8     19,3     23,8 9,0 66 75 83 1.009 1.011 1.013 19,0 0,0
09-05-2019 16,1     20,0     23,9 7,8 28 54 80 1.006 1.009 1.011 31,0 0,0
08-05-2019 16,1     22,1     28,0 11,9 34 63 92 1.004 1.009 1.013 44,0 0,0
07-05-2019 11,6     15,8     20,1 8,5 72 82 92 1.013 1.015 1.017 26,0 0,0
06-05-2019 8,3     13,2     18,2 9,9 40 58 76 1.015 1.017 1.018 27,0 0,0
05-05-2019 12,5     16,6     20,6 8,1 21 48 74 1.008 1.012 1.015 47,0 0,0
04-05-2019 11,2     16,3     21,4 10,2 35 57 79 1.008 1.010 1.011 40,0 0,0
03-05-2019 12,3     15,3     18,4 6,1 49 68 87 1.009 1.012 1.014 23,0 5,2 0,26 0,40
02-05-2019 14,7     17,2     19,7 5,0 72 80 87 1.012 1.014 1.015 26,0 0,0
01-05-2019 13,7     16,1     18,6 4,9 77 83 88 1.012 1.014 1.015 34,0 0,0
30-04-2019 13,4     16,2     19,1 5,7 71 79 87 1.013 1.015 1.017 34,0 0,0
29-04-2019 10,6     14,8     19,7 9,1 67 79 85 1.015 1.017 1.019 SSO 8,1 32,2 0,0
28-04-2019 13,1     16,4     19,6 6,5 48 62 75 1.018 1.021 1.023 29,0 0,0
27-04-2019 11,9     17,1     22,4 10,5 37 59 80 1.021 1.023 1.024 39,0 0,0
Últims 13 mesos disponibles
04/2019 8,3 11,9 14,9 15,2 12,1 18,6 23,0 14,7 47 68 84 997 1.012 1.023 SSO 0,3 56,0 21,2
03/2019 5,7 9,0 13,2 13,6 14,4 18,3 21,4 15,7 46 61 81 1.008 1.021 1.028 48,0 5,6
02/2019 2,3 6,2 10,8 11,0 9,3 15,8 20,9 18,6 37 69 82 991 1.022 1.032 71,0 0,0
01/2019 2,9 6,4 10,4 11,0 12,7 15,6 20,2 17,3 40 60 84 999 1.016 1.029 60,0 1,8
12/2018 4,3 8,6 12,9 12,9 13,3 17,2 24,4 20,1 52 72 90 1.007 1.023 1.029 OSO 0,1 58,0 5,2
11/2018 7,1 10,9 15,7 14,8 15,1 18,7 21,3 14,2 52 74 89 1.000 1.013 1.022 61,0 100,4
10/2018 9,6 14,5 17,9 18,9 15,6 23,4 28,2 18,6 38 68 92 996 1.012 1.024 66,0 119,2
09/2018 16,2 20,3 24,4 24,3 24,3 28,3 31,1 14,9 43 66 83 1.010 1.017 1.027 52,0 41,4
08/2018 19,3 22,8 26,7 26,5 27,6 30,3 33,0 13,7 44 68 81 1.009 1.014 1.019 40,0 16,2
07/2018 19,3 22,2 23,9 26,0 26,6 29,7 35,1 15,8 52 71 81 1.008 1.012 1.018 42,0 1,4
06/2018 15,1 19,2 23,1 22,4 22,7 26,2 29,3 14,2 44 70 83 1.008 1.013 1.019 44,0 14,4
05/2018 10,3 14,6 19,9 18,3 18,1 22,0 24,8 14,5 39 68 85 1.008 1.013 1.016 47,0 2,8
04/2018 7,7 11,6 17,6 15,7 14,3 19,8 24,8 17,1 45 65 87 992 1.011 1.023 56,0 15,2
Tots els anys disponibles
2018 -1,8 14,1 26,7 18,0 7,4 22,0 35,1 36,9 35 68 93 991 1.014 1.033 0,5 74,0 371,8
2017 1,2 13,9 25,2 17,9 7,3 22,0 37,3 36,1 31 67 93 993 1.017 1.034 0,0 68,0 110,4
2016 1,9 14,1 24,9 18,1 10,3 22,0 32,4 30,5 36 66 92 992 1.016 1.035 63,0 274,2
2015 1,2 12,3 27,8 16,2 8,6 20,0 31,6 30,4 33 68 94 993 1.019 1.036 88,0 296,7
Temperatura (°C)
Humitat relativa (%)
Velocitat del vent i ràfega màxima (km/h)
Direcció del vent (°)
Pressió (hPa)
Precipitació (mm)
Nota sobre les dades: s'avisa a l'usuari de la provisionalitat i no oficialitat d'aquestes dades
Logo AVAMET blanc
Web allotjada a Sollutia
Llicència de Creative CommonsLa web d'AVAMET i els seus continguts estan subjectes a una llicència de
Reconeixement - No Comercial - Compartir igual
Properes estacions: Altea - Club Nàutic d'Altea (Soci), Ontinyent - El Pilar (Soci), Ares del Maestrat (Ajuntament Soci), Catadau - L'Altet (Inforatge)     - - - - -      Últimes estacions: Asp - Poliesportiu (Soci), Jacarilla - centro (MeteOrihuela), Elx - Maitino/Vallverda/Velarde/Matola/Ferriol (Soci TiempoElche.com), Orihuela - Playa Flamenca (MeteOrihuela), - - -